sensor_id;sensor_type;location;lat;lon;timestamp;P1;durP1;ratioP1;P2;durP2;ratioP2
21095;SDS011;10706;49.036;12.112;2022-12-10T00:00:24;30.47;;;12.73;;
21095;SDS011;10706;49.036;12.112;2022-12-10T00:02:50;28.40;;;12.60;;
21095;SDS011;10706;49.036;12.112;2022-12-10T00:05:16;33.07;;;13.60;;
21095;SDS011;10706;49.036;12.112;2022-12-10T00:07:42;26.80;;;11.90;;
21095;SDS011;10706;49.036;12.112;2022-12-10T00:10:07;29.80;;;12.60;;
21095;SDS011;10706;49.036;12.112;2022-12-10T00:12:34;29.90;;;13.00;;
21095;SDS011;10706;49.036;12.112;2022-12-10T00:14:59;29.10;;;12.37;;
21095;SDS011;10706;49.036;12.112;2022-12-10T00:17:25;29.63;;;12.77;;
21095;SDS011;10706;49.036;12.112;2022-12-10T00:19:51;30.97;;;12.57;;
21095;SDS011;10706;49.036;12.112;2022-12-10T00:22:16;29.33;;;12.57;;
21095;SDS011;10706;49.036;12.112;2022-12-10T00:24:42;30.37;;;12.97;;
21095;SDS011;10706;49.036;12.112;2022-12-10T00:27:08;33.97;;;12.83;;
21095;SDS011;10706;49.036;12.112;2022-12-10T00:29:33;32.30;;;14.33;;
21095;SDS011;10706;49.036;12.112;2022-12-10T00:31:59;32.70;;;13.97;;
21095;SDS011;10706;49.036;12.112;2022-12-10T00:34:25;31.77;;;13.37;;
21095;SDS011;10706;49.036;12.112;2022-12-10T00:36:51;28.13;;;12.43;;
21095;SDS011;10706;49.036;12.112;2022-12-10T00:39:17;34.07;;;12.43;;
21095;SDS011;10706;49.036;12.112;2022-12-10T00:41:45;31.90;;;12.80;;
21095;SDS011;10706;49.036;12.112;2022-12-10T00:44:12;26.40;;;11.93;;
21095;SDS011;10706;49.036;12.112;2022-12-10T00:46:39;28.67;;;12.87;;
21095;SDS011;10706;49.036;12.112;2022-12-10T00:49:05;28.00;;;11.60;;
21095;SDS011;10706;49.036;12.112;2022-12-10T00:51:31;31.30;;;12.77;;
21095;SDS011;10706;49.036;12.112;2022-12-10T00:53:57;27.87;;;12.63;;
21095;SDS011;10706;49.036;12.112;2022-12-10T00:56:25;28.17;;;12.00;;
21095;SDS011;10706;49.036;12.112;2022-12-10T00:58:53;27.60;;;13.03;;
21095;SDS011;10706;49.036;12.112;2022-12-10T01:01:33;32.23;;;12.97;;
21095;SDS011;10706;49.036;12.112;2022-12-10T01:04:04;32.87;;;13.47;;
21095;SDS011;10706;49.036;12.112;2022-12-10T01:06:39;31.50;;;12.73;;
21095;SDS011;10706;49.036;12.112;2022-12-10T01:09:09;29.50;;;12.70;;
21095;SDS011;10706;49.036;12.112;2022-12-10T01:11:39;27.23;;;13.07;;
21095;SDS011;10706;49.036;12.112;2022-12-10T01:14:08;30.83;;;13.00;;
21095;SDS011;10706;49.036;12.112;2022-12-10T01:16:37;31.13;;;12.00;;
21095;SDS011;10706;49.036;12.112;2022-12-10T01:19:03;31.27;;;12.70;;
21095;SDS011;10706;49.036;12.112;2022-12-10T01:21:29;28.40;;;12.23;;
21095;SDS011;10706;49.036;12.112;2022-12-10T01:23:55;28.73;;;12.37;;
21095;SDS011;10706;49.036;12.112;2022-12-10T01:26:23;29.33;;;13.40;;
21095;SDS011;10706;49.036;12.112;2022-12-10T01:28:53;29.27;;;12.00;;
21095;SDS011;10706;49.036;12.112;2022-12-10T01:31:21;30.97;;;12.93;;
21095;SDS011;10706;49.036;12.112;2022-12-10T01:33:50;31.33;;;13.17;;
21095;SDS011;10706;49.036;12.112;2022-12-10T01:36:20;30.60;;;13.30;;
21095;SDS011;10706;49.036;12.112;2022-12-10T01:38:50;30.80;;;13.93;;
21095;SDS011;10706;49.036;12.112;2022-12-10T01:41:18;27.27;;;11.87;;
21095;SDS011;10706;49.036;12.112;2022-12-10T01:43:55;35.63;;;14.77;;
21095;SDS011;10706;49.036;12.112;2022-12-10T01:46:44;36.17;;;13.37;;
21095;SDS011;10706;49.036;12.112;2022-12-10T01:49:14;29.53;;;13.27;;
21095;SDS011;10706;49.036;12.112;2022-12-10T01:51:44;30.43;;;13.10;;
21095;SDS011;10706;49.036;12.112;2022-12-10T01:54:15;35.20;;;13.63;;
21095;SDS011;10706;49.036;12.112;2022-12-10T01:56:47;29.83;;;12.63;;
21095;SDS011;10706;49.036;12.112;2022-12-10T01:59:33;34.67;;;12.90;;
21095;SDS011;10706;49.036;12.112;2022-12-10T02:02:03;28.53;;;12.87;;
21095;SDS011;10706;49.036;12.112;2022-12-10T02:04:42;30.50;;;13.17;;
21095;SDS011;10706;49.036;12.112;2022-12-10T02:07:28;28.97;;;12.10;;
21095;SDS011;10706;49.036;12.112;2022-12-10T02:10:21;33.63;;;13.13;;
21095;SDS011;10706;49.036;12.112;2022-12-10T02:13:40;31.47;;;12.90;;
21095;SDS011;10706;49.036;12.112;2022-12-10T02:16:15;31.87;;;13.03;;
21095;SDS011;10706;49.036;12.112;2022-12-10T02:18:48;32.23;;;13.53;;
21095;SDS011;10706;49.036;12.112;2022-12-10T02:21:24;36.33;;;14.60;;
21095;SDS011;10706;49.036;12.112;2022-12-10T02:23:59;36.90;;;15.47;;
21095;SDS011;10706;49.036;12.112;2022-12-10T02:29:20;30.50;;;13.80;;
21095;SDS011;10706;49.036;12.112;2022-12-10T02:31:52;30.33;;;13.63;;
21095;SDS011;10706;49.036;12.112;2022-12-10T02:34:35;44.30;;;15.50;;
21095;SDS011;10706;49.036;12.112;2022-12-10T02:37:10;38.23;;;14.33;;
21095;SDS011;10706;49.036;12.112;2022-12-10T02:39:47;32.00;;;13.93;;
21095;SDS011;10706;49.036;12.112;2022-12-10T02:42:18;35.07;;;13.53;;
21095;SDS011;10706;49.036;12.112;2022-12-10T02:44:46;35.97;;;14.57;;
21095;SDS011;10706;49.036;12.112;2022-12-10T02:47:14;34.20;;;13.37;;
21095;SDS011;10706;49.036;12.112;2022-12-10T02:49:43;36.83;;;14.77;;
21095;SDS011;10706;49.036;12.112;2022-12-10T02:52:17;34.53;;;14.13;;
21095;SDS011;10706;49.036;12.112;2022-12-10T02:54:45;35.20;;;15.20;;
21095;SDS011;10706;49.036;12.112;2022-12-10T02:57:20;36.43;;;15.23;;
21095;SDS011;10706;49.036;12.112;2022-12-10T03:00:37;36.27;;;14.93;;
21095;SDS011;10706;49.036;12.112;2022-12-10T03:03:34;37.67;;;15.07;;
21095;SDS011;10706;49.036;12.112;2022-12-10T03:09:07;33.63;;;14.07;;
21095;SDS011;10706;49.036;12.112;2022-12-10T03:12:02;30.83;;;14.13;;
21095;SDS011;10706;49.036;12.112;2022-12-10T03:14:57;35.50;;;14.03;;
21095;SDS011;10706;49.036;12.112;2022-12-10T03:17:28;36.33;;;14.73;;
21095;SDS011;10706;49.036;12.112;2022-12-10T03:19:56;34.83;;;13.70;;
21095;SDS011;10706;49.036;12.112;2022-12-10T03:22:23;40.03;;;16.30;;
21095;SDS011;10706;49.036;12.112;2022-12-10T03:24:49;39.17;;;16.10;;
21095;SDS011;10706;49.036;12.112;2022-12-10T03:27:17;38.53;;;15.90;;
21095;SDS011;10706;49.036;12.112;2022-12-10T03:29:56;38.27;;;15.77;;
21095;SDS011;10706;49.036;12.112;2022-12-10T03:32:24;45.13;;;16.50;;
21095;SDS011;10706;49.036;12.112;2022-12-10T03:34:53;43.10;;;15.83;;
21095;SDS011;10706;49.036;12.112;2022-12-10T03:37:23;34.30;;;15.97;;
21095;SDS011;10706;49.036;12.112;2022-12-10T03:39:51;43.43;;;16.63;;
21095;SDS011;10706;49.036;12.112;2022-12-10T03:42:17;39.60;;;15.07;;
21095;SDS011;10706;49.036;12.112;2022-12-10T03:44:43;40.83;;;15.87;;
21095;SDS011;10706;49.036;12.112;2022-12-10T03:47:10;41.87;;;17.67;;
21095;SDS011;10706;49.036;12.112;2022-12-10T03:49:39;43.07;;;16.47;;
21095;SDS011;10706;49.036;12.112;2022-12-10T03:52:06;39.40;;;17.07;;
21095;SDS011;10706;49.036;12.112;2022-12-10T03:54:32;38.17;;;15.57;;
21095;SDS011;10706;49.036;12.112;2022-12-10T03:56:58;38.63;;;17.07;;
21095;SDS011;10706;49.036;12.112;2022-12-10T03:59:23;42.23;;;16.63;;
21095;SDS011;10706;49.036;12.112;2022-12-10T04:01:49;39.50;;;17.43;;
21095;SDS011;10706;49.036;12.112;2022-12-10T04:04:15;42.47;;;16.17;;
21095;SDS011;10706;49.036;12.112;2022-12-10T04:06:41;39.57;;;16.03;;
21095;SDS011;10706;49.036;12.112;2022-12-10T04:09:09;38.67;;;15.60;;
21095;SDS011;10706;49.036;12.112;2022-12-10T04:11:37;43.53;;;16.77;;
21095;SDS011;10706;49.036;12.112;2022-12-10T04:14:02;40.63;;;16.53;;
21095;SDS011;10706;49.036;12.112;2022-12-10T04:16:47;38.27;;;15.67;;
21095;SDS011;10706;49.036;12.112;2022-12-10T04:19:13;38.10;;;15.37;;
21095;SDS011;10706;49.036;12.112;2022-12-10T04:21:42;37.30;;;14.73;;
21095;SDS011;10706;49.036;12.112;2022-12-10T04:24:29;39.57;;;17.00;;
21095;SDS011;10706;49.036;12.112;2022-12-10T04:29:59;37.03;;;15.93;;
21095;SDS011;10706;49.036;12.112;2022-12-10T04:32:26;40.53;;;16.87;;
21095;SDS011;10706;49.036;12.112;2022-12-10T04:34:54;42.17;;;16.03;;
21095;SDS011;10706;49.036;12.112;2022-12-10T04:37:20;40.77;;;16.07;;
21095;SDS011;10706;49.036;12.112;2022-12-10T04:39:49;37.57;;;16.13;;
21095;SDS011;10706;49.036;12.112;2022-12-10T04:42:15;42.70;;;17.63;;
21095;SDS011;10706;49.036;12.112;2022-12-10T04:44:42;41.90;;;17.03;;
21095;SDS011;10706;49.036;12.112;2022-12-10T04:47:08;38.23;;;15.63;;
21095;SDS011;10706;49.036;12.112;2022-12-10T04:49:36;42.07;;;16.93;;
21095;SDS011;10706;49.036;12.112;2022-12-10T04:52:02;43.97;;;17.40;;
21095;SDS011;10706;49.036;12.112;2022-12-10T04:54:29;40.20;;;16.50;;
21095;SDS011;10706;49.036;12.112;2022-12-10T04:56:55;43.73;;;16.77;;
21095;SDS011;10706;49.036;12.112;2022-12-10T04:59:20;42.77;;;16.50;;
21095;SDS011;10706;49.036;12.112;2022-12-10T05:01:46;41.27;;;16.90;;
21095;SDS011;10706;49.036;12.112;2022-12-10T05:04:13;45.47;;;17.67;;
21095;SDS011;10706;49.036;12.112;2022-12-10T05:06:42;42.93;;;16.53;;
21095;SDS011;10706;49.036;12.112;2022-12-10T05:09:09;38.93;;;16.40;;
21095;SDS011;10706;49.036;12.112;2022-12-10T05:11:36;42.30;;;17.47;;
21095;SDS011;10706;49.036;12.112;2022-12-10T05:14:02;44.33;;;17.23;;
21095;SDS011;10706;49.036;12.112;2022-12-10T05:16:29;47.63;;;17.67;;
21095;SDS011;10706;49.036;12.112;2022-12-10T05:18:57;41.23;;;17.27;;
21095;SDS011;10706;49.036;12.112;2022-12-10T05:21:24;40.40;;;16.80;;
21095;SDS011;10706;49.036;12.112;2022-12-10T05:24:12;38.73;;;17.00;;
21095;SDS011;10706;49.036;12.112;2022-12-10T05:26:39;45.77;;;17.97;;
21095;SDS011;10706;49.036;12.112;2022-12-10T05:29:04;41.47;;;16.53;;
21095;SDS011;10706;49.036;12.112;2022-12-10T05:31:30;43.40;;;18.67;;
21095;SDS011;10706;49.036;12.112;2022-12-10T05:33:57;44.13;;;16.87;;
21095;SDS011;10706;49.036;12.112;2022-12-10T05:36:24;40.20;;;15.87;;
21095;SDS011;10706;49.036;12.112;2022-12-10T05:38:54;43.00;;;17.00;;
21095;SDS011;10706;49.036;12.112;2022-12-10T05:41:22;42.77;;;17.43;;
21095;SDS011;10706;49.036;12.112;2022-12-10T05:43:54;48.27;;;18.10;;
21095;SDS011;10706;49.036;12.112;2022-12-10T05:46:24;44.90;;;18.40;;
21095;SDS011;10706;49.036;12.112;2022-12-10T05:48:52;50.57;;;17.93;;
21095;SDS011;10706;49.036;12.112;2022-12-10T05:51:20;45.70;;;17.93;;
21095;SDS011;10706;49.036;12.112;2022-12-10T05:53:50;48.90;;;19.10;;
21095;SDS011;10706;49.036;12.112;2022-12-10T05:56:18;48.27;;;18.87;;
21095;SDS011;10706;49.036;12.112;2022-12-10T05:58:47;45.17;;;17.73;;
21095;SDS011;10706;49.036;12.112;2022-12-10T06:01:15;46.43;;;18.93;;
21095;SDS011;10706;49.036;12.112;2022-12-10T06:03:44;43.53;;;18.40;;
21095;SDS011;10706;49.036;12.112;2022-12-10T06:06:11;53.53;;;18.87;;
21095;SDS011;10706;49.036;12.112;2022-12-10T06:08:37;43.57;;;18.17;;
21095;SDS011;10706;49.036;12.112;2022-12-10T06:11:04;48.60;;;19.07;;
21095;SDS011;10706;49.036;12.112;2022-12-10T06:13:34;51.47;;;18.93;;
21095;SDS011;10706;49.036;12.112;2022-12-10T06:16:04;46.03;;;19.77;;
21095;SDS011;10706;49.036;12.112;2022-12-10T06:18:35;49.97;;;19.13;;
21095;SDS011;10706;49.036;12.112;2022-12-10T06:21:03;49.10;;;18.80;;
21095;SDS011;10706;49.036;12.112;2022-12-10T06:23:34;46.27;;;18.70;;
21095;SDS011;10706;49.036;12.112;2022-12-10T06:26:05;49.47;;;19.73;;
21095;SDS011;10706;49.036;12.112;2022-12-10T06:28:40;45.27;;;18.30;;
21095;SDS011;10706;49.036;12.112;2022-12-10T06:31:08;43.47;;;17.83;;
21095;SDS011;10706;49.036;12.112;2022-12-10T06:33:34;44.97;;;18.27;;
21095;SDS011;10706;49.036;12.112;2022-12-10T06:36:02;52.73;;;20.20;;
21095;SDS011;10706;49.036;12.112;2022-12-10T06:38:30;48.47;;;19.67;;
21095;SDS011;10706;49.036;12.112;2022-12-10T06:40:56;49.20;;;19.20;;
21095;SDS011;10706;49.036;12.112;2022-12-10T06:43:22;46.03;;;19.47;;
21095;SDS011;10706;49.036;12.112;2022-12-10T06:45:48;53.07;;;19.50;;
21095;SDS011;10706;49.036;12.112;2022-12-10T06:48:13;50.57;;;20.10;;
21095;SDS011;10706;49.036;12.112;2022-12-10T06:50:39;51.70;;;18.87;;
21095;SDS011;10706;49.036;12.112;2022-12-10T06:53:06;47.57;;;19.43;;
21095;SDS011;10706;49.036;12.112;2022-12-10T06:55:31;46.93;;;18.30;;
21095;SDS011;10706;49.036;12.112;2022-12-10T06:57:57;49.67;;;19.80;;
21095;SDS011;10706;49.036;12.112;2022-12-10T07:00:23;49.07;;;19.13;;
21095;SDS011;10706;49.036;12.112;2022-12-10T07:02:49;50.57;;;20.43;;
21095;SDS011;10706;49.036;12.112;2022-12-10T07:05:15;49.87;;;19.93;;
21095;SDS011;10706;49.036;12.112;2022-12-10T07:07:40;53.53;;;20.87;;
21095;SDS011;10706;49.036;12.112;2022-12-10T07:10:07;45.67;;;17.57;;
21095;SDS011;10706;49.036;12.112;2022-12-10T07:12:33;49.73;;;18.80;;
21095;SDS011;10706;49.036;12.112;2022-12-10T07:14:59;48.23;;;18.90;;
21095;SDS011;10706;49.036;12.112;2022-12-10T07:17:25;44.23;;;19.27;;
21095;SDS011;10706;49.036;12.112;2022-12-10T07:19:50;44.87;;;17.63;;
21095;SDS011;10706;49.036;12.112;2022-12-10T07:22:16;50.60;;;18.43;;
21095;SDS011;10706;49.036;12.112;2022-12-10T07:24:42;47.23;;;20.60;;
21095;SDS011;10706;49.036;12.112;2022-12-10T07:27:08;47.60;;;19.20;;
21095;SDS011;10706;49.036;12.112;2022-12-10T07:29:34;45.33;;;19.53;;
21095;SDS011;10706;49.036;12.112;2022-12-10T07:32:00;47.57;;;19.17;;
21095;SDS011;10706;49.036;12.112;2022-12-10T07:34:26;48.80;;;20.20;;
21095;SDS011;10706;49.036;12.112;2022-12-10T07:36:51;53.10;;;20.33;;
21095;SDS011;10706;49.036;12.112;2022-12-10T07:39:17;45.30;;;18.90;;
21095;SDS011;10706;49.036;12.112;2022-12-10T07:41:50;51.03;;;19.00;;
21095;SDS011;10706;49.036;12.112;2022-12-10T07:44:18;54.17;;;20.50;;
21095;SDS011;10706;49.036;12.112;2022-12-10T07:46:46;46.33;;;18.43;;
21095;SDS011;10706;49.036;12.112;2022-12-10T07:49:13;60.07;;;20.77;;
21095;SDS011;10706;49.036;12.112;2022-12-10T07:51:42;52.70;;;22.47;;
21095;SDS011;10706;49.036;12.112;2022-12-10T07:54:10;53.07;;;20.73;;
21095;SDS011;10706;49.036;12.112;2022-12-10T07:56:36;53.20;;;19.13;;
21095;SDS011;10706;49.036;12.112;2022-12-10T07:59:02;52.87;;;19.77;;
21095;SDS011;10706;49.036;12.112;2022-12-10T08:01:28;50.73;;;21.97;;
21095;SDS011;10706;49.036;12.112;2022-12-10T08:03:54;48.23;;;20.00;;
21095;SDS011;10706;49.036;12.112;2022-12-10T08:06:21;47.00;;;19.73;;
21095;SDS011;10706;49.036;12.112;2022-12-10T08:08:49;55.20;;;19.97;;
21095;SDS011;10706;49.036;12.112;2022-12-10T08:11:16;47.67;;;18.77;;
21095;SDS011;10706;49.036;12.112;2022-12-10T08:13:43;48.10;;;19.57;;
21095;SDS011;10706;49.036;12.112;2022-12-10T08:16:14;49.83;;;19.00;;
21095;SDS011;10706;49.036;12.112;2022-12-10T08:18:43;52.17;;;20.27;;
21095;SDS011;10706;49.036;12.112;2022-12-10T08:21:14;50.00;;;19.53;;
21095;SDS011;10706;49.036;12.112;2022-12-10T08:23:42;47.27;;;18.37;;
21095;SDS011;10706;49.036;12.112;2022-12-10T08:26:10;42.80;;;18.57;;
21095;SDS011;10706;49.036;12.112;2022-12-10T08:28:38;49.90;;;18.77;;
21095;SDS011;10706;49.036;12.112;2022-12-10T08:31:06;46.00;;;19.30;;
21095;SDS011;10706;49.036;12.112;2022-12-10T08:33:34;49.87;;;18.83;;
21095;SDS011;10706;49.036;12.112;2022-12-10T08:36:02;48.93;;;19.90;;
21095;SDS011;10706;49.036;12.112;2022-12-10T08:38:29;48.47;;;18.63;;
21095;SDS011;10706;49.036;12.112;2022-12-10T08:40:56;43.17;;;19.77;;
21095;SDS011;10706;49.036;12.112;2022-12-10T08:43:23;51.67;;;20.17;;
21095;SDS011;10706;49.036;12.112;2022-12-10T08:45:48;45.40;;;19.27;;
21095;SDS011;10706;49.036;12.112;2022-12-10T08:48:14;51.60;;;19.27;;
21095;SDS011;10706;49.036;12.112;2022-12-10T08:50:40;52.00;;;19.83;;
21095;SDS011;10706;49.036;12.112;2022-12-10T08:53:06;47.33;;;18.47;;
21095;SDS011;10706;49.036;12.112;2022-12-10T08:55:32;41.57;;;17.27;;
21095;SDS011;10706;49.036;12.112;2022-12-10T08:58:02;51.30;;;20.27;;
21095;SDS011;10706;49.036;12.112;2022-12-10T09:00:28;48.83;;;19.30;;
21095;SDS011;10706;49.036;12.112;2022-12-10T09:02:54;48.70;;;19.27;;
21095;SDS011;10706;49.036;12.112;2022-12-10T09:05:19;53.80;;;18.90;;
21095;SDS011;10706;49.036;12.112;2022-12-10T09:07:45;50.80;;;19.70;;
21095;SDS011;10706;49.036;12.112;2022-12-10T09:10:11;47.63;;;18.70;;
21095;SDS011;10706;49.036;12.112;2022-12-10T09:12:37;42.57;;;18.40;;
21095;SDS011;10706;49.036;12.112;2022-12-10T09:15:04;49.33;;;19.27;;
21095;SDS011;10706;49.036;12.112;2022-12-10T09:17:31;51.53;;;20.07;;
21095;SDS011;10706;49.036;12.112;2022-12-10T09:19:57;47.47;;;18.33;;
21095;SDS011;10706;49.036;12.112;2022-12-10T09:22:22;53.90;;;18.93;;
21095;SDS011;10706;49.036;12.112;2022-12-10T09:24:48;43.63;;;19.07;;
21095;SDS011;10706;49.036;12.112;2022-12-10T09:27:14;50.10;;;19.30;;
21095;SDS011;10706;49.036;12.112;2022-12-10T09:29:40;45.07;;;18.27;;
21095;SDS011;10706;49.036;12.112;2022-12-10T09:32:05;43.03;;;17.83;;
21095;SDS011;10706;49.036;12.112;2022-12-10T09:34:31;40.37;;;17.63;;
21095;SDS011;10706;49.036;12.112;2022-12-10T09:36:57;41.27;;;17.67;;
21095;SDS011;10706;49.036;12.112;2022-12-10T09:39:22;44.23;;;18.43;;
21095;SDS011;10706;49.036;12.112;2022-12-10T09:47:40;45.43;;;18.93;;
21095;SDS011;10706;49.036;12.112;2022-12-10T09:50:26;46.73;;;19.33;;
21095;SDS011;10706;49.036;12.112;2022-12-10T09:53:14;46.27;;;18.60;;
21095;SDS011;10706;49.036;12.112;2022-12-10T09:55:45;43.63;;;18.67;;
21095;SDS011;10706;49.036;12.112;2022-12-10T09:58:15;48.47;;;20.17;;
21095;SDS011;10706;49.036;12.112;2022-12-10T10:00:54;49.23;;;19.00;;
21095;SDS011;10706;49.036;12.112;2022-12-10T10:03:26;44.10;;;17.23;;
21095;SDS011;10706;49.036;12.112;2022-12-10T10:05:53;52.10;;;18.27;;
21095;SDS011;10706;49.036;12.112;2022-12-10T10:08:23;48.00;;;17.90;;
21095;SDS011;10706;49.036;12.112;2022-12-10T10:11:21;52.50;;;16.77;;
21095;SDS011;10706;49.036;12.112;2022-12-10T10:13:53;46.57;;;19.20;;
21095;SDS011;10706;49.036;12.112;2022-12-10T10:16:55;45.13;;;17.90;;
21095;SDS011;10706;49.036;12.112;2022-12-10T10:19:34;41.37;;;17.17;;
21095;SDS011;10706;49.036;12.112;2022-12-10T10:22:03;46.50;;;18.47;;
21095;SDS011;10706;49.036;12.112;2022-12-10T10:24:34;44.60;;;18.53;;
21095;SDS011;10706;49.036;12.112;2022-12-10T10:27:36;44.07;;;17.27;;
21095;SDS011;10706;49.036;12.112;2022-12-10T10:29:57;49.13;;;19.13;;
21095;SDS011;10706;49.036;12.112;2022-12-10T10:32:27;40.63;;;16.80;;
21095;SDS011;10706;49.036;12.112;2022-12-10T10:35:02;45.23;;;19.43;;
21095;SDS011;10706;49.036;12.112;2022-12-10T10:37:31;43.10;;;17.10;;
21095;SDS011;10706;49.036;12.112;2022-12-10T10:40:23;46.63;;;19.60;;
21095;SDS011;10706;49.036;12.112;2022-12-10T10:42:57;46.47;;;19.57;;
21095;SDS011;10706;49.036;12.112;2022-12-10T10:45:38;42.73;;;17.87;;
21095;SDS011;10706;49.036;12.112;2022-12-10T10:48:13;44.63;;;19.10;;
21095;SDS011;10706;49.036;12.112;2022-12-10T10:50:51;41.70;;;18.17;;
21095;SDS011;10706;49.036;12.112;2022-12-10T10:55:59;41.27;;;17.73;;
21095;SDS011;10706;49.036;12.112;2022-12-10T11:01:50;42.33;;;17.43;;
21095;SDS011;10706;49.036;12.112;2022-12-10T11:04:44;42.33;;;17.67;;
21095;SDS011;10706;49.036;12.112;2022-12-10T11:07:18;43.83;;;17.83;;
21095;SDS011;10706;49.036;12.112;2022-12-10T11:09:52;39.57;;;17.00;;
21095;SDS011;10706;49.036;12.112;2022-12-10T11:12:21;47.03;;;18.77;;
21095;SDS011;10706;49.036;12.112;2022-12-10T11:17:49;41.10;;;17.13;;
21095;SDS011;10706;49.036;12.112;2022-12-10T11:20:18;42.77;;;17.13;;
21095;SDS011;10706;49.036;12.112;2022-12-10T11:22:59;41.87;;;18.17;;
21095;SDS011;10706;49.036;12.112;2022-12-10T11:28:12;47.03;;;17.43;;
21095;SDS011;10706;49.036;12.112;2022-12-10T11:31:39;43.00;;;17.30;;
21095;SDS011;10706;49.036;12.112;2022-12-10T11:43:01;39.23;;;16.53;;
21095;SDS011;10706;49.036;12.112;2022-12-10T11:51:53;41.37;;;16.60;;
21095;SDS011;10706;49.036;12.112;2022-12-10T12:00:49;38.93;;;18.10;;
21095;SDS011;10706;49.036;12.112;2022-12-10T12:12:40;38.23;;;16.83;;
21095;SDS011;10706;49.036;12.112;2022-12-10T12:18:04;40.07;;;16.80;;
21095;SDS011;10706;49.036;12.112;2022-12-10T12:20:46;42.17;;;17.23;;
21095;SDS011;10706;49.036;12.112;2022-12-10T12:23:26;33.83;;;15.00;;
21095;SDS011;10706;49.036;12.112;2022-12-10T12:26:06;34.27;;;13.90;;
21095;SDS011;10706;49.036;12.112;2022-12-10T12:35:01;40.17;;;16.47;;
21095;SDS011;10706;49.036;12.112;2022-12-10T12:37:41;32.10;;;14.33;;
21095;SDS011;10706;49.036;12.112;2022-12-10T12:42:59;43.60;;;17.03;;
21095;SDS011;10706;49.036;12.112;2022-12-10T12:45:42;40.50;;;16.63;;
21095;SDS011;10706;49.036;12.112;2022-12-10T12:48:14;41.57;;;17.23;;
21095;SDS011;10706;49.036;12.112;2022-12-10T12:51:12;37.97;;;14.97;;
21095;SDS011;10706;49.036;12.112;2022-12-10T12:53:54;40.43;;;16.23;;
21095;SDS011;10706;49.036;12.112;2022-12-10T13:02:20;42.50;;;16.67;;
21095;SDS011;10706;49.036;12.112;2022-12-10T13:05:00;34.97;;;15.40;;
21095;SDS011;10706;49.036;12.112;2022-12-10T13:07:27;32.50;;;13.93;;
21095;SDS011;10706;49.036;12.112;2022-12-10T13:15:18;38.93;;;16.07;;
21095;SDS011;10706;49.036;12.112;2022-12-10T13:21:24;36.40;;;14.57;;
21095;SDS011;10706;49.036;12.112;2022-12-10T13:23:53;38.50;;;15.27;;
21095;SDS011;10706;49.036;12.112;2022-12-10T13:26:31;37.77;;;15.93;;
21095;SDS011;10706;49.036;12.112;2022-12-10T13:29:11;38.47;;;16.93;;
21095;SDS011;10706;49.036;12.112;2022-12-10T13:32:24;45.07;;;16.13;;
21095;SDS011;10706;49.036;12.112;2022-12-10T13:37:35;37.80;;;15.60;;
21095;SDS011;10706;49.036;12.112;2022-12-10T13:40:15;35.30;;;15.77;;
21095;SDS011;10706;49.036;12.112;2022-12-10T13:42:55;41.17;;;16.77;;
21095;SDS011;10706;49.036;12.112;2022-12-10T13:48:54;35.17;;;14.50;;
21095;SDS011;10706;49.036;12.112;2022-12-10T13:51:36;36.63;;;15.83;;
21095;SDS011;10706;49.036;12.112;2022-12-10T14:00:09;35.30;;;15.33;;
21095;SDS011;10706;49.036;12.112;2022-12-10T14:08:36;33.67;;;13.50;;
21095;SDS011;10706;49.036;12.112;2022-12-10T14:11:06;35.33;;;14.33;;
21095;SDS011;10706;49.036;12.112;2022-12-10T14:13:46;37.43;;;14.13;;
21095;SDS011;10706;49.036;12.112;2022-12-10T14:16:19;34.30;;;14.83;;
21095;SDS011;10706;49.036;12.112;2022-12-10T14:18:51;34.03;;;14.13;;
21095;SDS011;10706;49.036;12.112;2022-12-10T14:21:22;33.77;;;13.43;;
21095;SDS011;10706;49.036;12.112;2022-12-10T14:23:49;40.77;;;19.17;;
21095;SDS011;10706;49.036;12.112;2022-12-10T14:26:17;35.60;;;16.30;;
21095;SDS011;10706;49.036;12.112;2022-12-10T14:28:56;71.63;;;28.27;;
21095;SDS011;10706;49.036;12.112;2022-12-10T14:31:44;36.27;;;15.93;;
21095;SDS011;10706;49.036;12.112;2022-12-10T14:34:14;39.50;;;16.70;;
21095;SDS011;10706;49.036;12.112;2022-12-10T14:36:53;37.83;;;15.80;;
21095;SDS011;10706;49.036;12.112;2022-12-10T14:39:24;33.33;;;14.80;;
21095;SDS011;10706;49.036;12.112;2022-12-10T14:41:55;34.07;;;14.70;;
21095;SDS011;10706;49.036;12.112;2022-12-10T14:44:24;39.13;;;15.50;;
21095;SDS011;10706;49.036;12.112;2022-12-10T14:46:52;36.50;;;15.07;;
21095;SDS011;10706;49.036;12.112;2022-12-10T14:49:48;36.30;;;15.57;;
21095;SDS011;10706;49.036;12.112;2022-12-10T14:52:19;41.17;;;16.40;;
21095;SDS011;10706;49.036;12.112;2022-12-10T14:54:49;41.53;;;15.43;;
21095;SDS011;10706;49.036;12.112;2022-12-10T14:57:24;38.07;;;15.20;;
21095;SDS011;10706;49.036;12.112;2022-12-10T15:00:03;39.43;;;15.63;;
21095;SDS011;10706;49.036;12.112;2022-12-10T15:02:37;39.97;;;15.47;;
21095;SDS011;10706;49.036;12.112;2022-12-10T15:05:13;37.07;;;15.70;;
21095;SDS011;10706;49.036;12.112;2022-12-10T15:07:57;39.20;;;16.37;;
21095;SDS011;10706;49.036;12.112;2022-12-10T15:10:37;35.67;;;16.23;;
21095;SDS011;10706;49.036;12.112;2022-12-10T15:13:07;37.33;;;16.43;;
21095;SDS011;10706;49.036;12.112;2022-12-10T15:15:53;42.07;;;16.73;;
21095;SDS011;10706;49.036;12.112;2022-12-10T15:18:20;76.07;;;26.43;;
21095;SDS011;10706;49.036;12.112;2022-12-10T15:23:46;60.27;;;23.70;;
21095;SDS011;10706;49.036;12.112;2022-12-10T15:29:01;42.83;;;16.20;;
21095;SDS011;10706;49.036;12.112;2022-12-10T15:32:08;41.10;;;16.83;;
21095;SDS011;10706;49.036;12.112;2022-12-10T15:34:49;44.73;;;18.63;;
21095;SDS011;10706;49.036;12.112;2022-12-10T15:39:53;45.10;;;18.67;;
21095;SDS011;10706;49.036;12.112;2022-12-10T15:42:30;46.23;;;17.13;;
21095;SDS011;10706;49.036;12.112;2022-12-10T15:45:18;35.87;;;16.20;;
21095;SDS011;10706;49.036;12.112;2022-12-10T15:47:52;38.50;;;15.77;;
21095;SDS011;10706;49.036;12.112;2022-12-10T15:50:23;39.20;;;16.00;;
21095;SDS011;10706;49.036;12.112;2022-12-10T15:52:50;39.33;;;16.60;;
21095;SDS011;10706;49.036;12.112;2022-12-10T15:55:17;40.07;;;15.07;;
21095;SDS011;10706;49.036;12.112;2022-12-10T15:57:43;43.33;;;17.70;;
21095;SDS011;10706;49.036;12.112;2022-12-10T16:02:56;41.20;;;16.53;;
21095;SDS011;10706;49.036;12.112;2022-12-10T16:05:29;41.00;;;16.27;;
21095;SDS011;10706;49.036;12.112;2022-12-10T16:08:01;47.07;;;17.53;;
21095;SDS011;10706;49.036;12.112;2022-12-10T16:10:39;42.87;;;16.90;;
21095;SDS011;10706;49.036;12.112;2022-12-10T16:13:06;38.47;;;16.73;;
21095;SDS011;10706;49.036;12.112;2022-12-10T16:16:00;43.30;;;16.93;;
21095;SDS011;10706;49.036;12.112;2022-12-10T16:18:32;46.33;;;18.57;;
21095;SDS011;10706;49.036;12.112;2022-12-10T16:21:01;47.03;;;19.13;;
21095;SDS011;10706;49.036;12.112;2022-12-10T16:23:29;40.50;;;18.07;;
21095;SDS011;10706;49.036;12.112;2022-12-10T16:25:55;41.13;;;17.33;;